createdAt,value
2023-04-14T00:01:39.730Z,9.80
2023-04-14T00:04:06.652Z,10.93
2023-04-14T00:06:33.311Z,9.87
2023-04-14T00:09:00.067Z,6.50
2023-04-14T00:11:27.189Z,8.60
2023-04-14T00:13:55.821Z,7.93
2023-04-14T00:16:22.473Z,8.60
2023-04-14T00:18:49.226Z,9.37
2023-04-14T00:21:16.190Z,8.17
2023-04-14T00:23:42.752Z,6.37
2023-04-14T00:26:09.360Z,6.93
2023-04-14T00:28:36.034Z,7.17
2023-04-14T00:31:02.770Z,6.43
2023-04-14T00:33:29.357Z,9.33
2023-04-14T00:35:56.902Z,8.83
2023-04-14T00:38:23.807Z,6.13
2023-04-14T00:40:50.343Z,8.10
2023-04-14T00:43:20.436Z,5.97
2023-04-14T00:45:49.293Z,9.17
2023-04-14T00:48:17.393Z,10.80
2023-04-14T00:50:44.331Z,6.67
2023-04-14T00:53:12.623Z,7.50
2023-04-14T00:55:40.261Z,8.07
2023-04-14T00:58:07.454Z,8.00
2023-04-14T01:00:35.269Z,8.20
2023-04-14T01:03:02.118Z,6.93
2023-04-14T01:05:28.963Z,9.67
2023-04-14T01:07:55.696Z,5.87
2023-04-14T01:10:24.138Z,7.80
2023-04-14T01:13:13.642Z,6.07
2023-04-14T01:16:00.481Z,5.87
2023-04-14T01:18:45.288Z,6.93
2023-04-14T01:21:17.289Z,5.13
2023-04-14T01:24:09.284Z,4.93
2023-04-14T01:26:36.082Z,6.90
2023-04-14T01:29:02.841Z,6.93
2023-04-14T01:31:48.791Z,5.57
2023-04-14T01:34:43.303Z,7.43
2023-04-14T01:37:16.651Z,7.13
2023-04-14T01:39:52.345Z,5.97
2023-04-14T01:42:23.265Z,6.30
2023-04-14T01:44:55.209Z,6.00
2023-04-14T01:47:24.810Z,5.53
2023-04-14T01:49:53.658Z,4.40
2023-04-14T01:52:22.130Z,5.63
2023-04-14T01:54:52.210Z,6.20
2023-04-14T01:57:22.602Z,7.20
2023-04-14T01:59:51.790Z,9.33
2023-04-14T02:02:21.201Z,4.73
2023-04-14T02:04:49.293Z,5.03
2023-04-14T02:07:17.949Z,5.60
2023-04-14T02:09:48.074Z,5.60
2023-04-14T02:12:15.012Z,7.57
2023-04-14T02:14:43.275Z,8.17
2023-04-14T02:17:11.597Z,6.17
2023-04-14T02:19:38.830Z,5.97
2023-04-14T02:22:05.649Z,6.60
2023-04-14T02:24:32.453Z,6.37
2023-04-14T02:27:07.157Z,7.63
2023-04-14T02:29:35.896Z,5.83
2023-04-14T02:32:14.776Z,5.47
2023-04-14T02:35:08.449Z,6.50
2023-04-14T02:37:40.106Z,6.07
2023-04-14T02:40:17.422Z,6.57
2023-04-14T02:42:48.069Z,5.20
2023-04-14T02:45:21.526Z,5.20
2023-04-14T02:47:53.112Z,7.23
2023-04-14T02:50:22.566Z,6.57
2023-04-14T02:52:51.607Z,4.47
2023-04-14T02:55:20.420Z,5.03
2023-04-14T02:57:48.317Z,4.90
2023-04-14T03:00:16.033Z,6.10
2023-04-14T03:02:45.047Z,4.97
2023-04-14T03:05:12.918Z,6.37
2023-04-14T03:07:42.176Z,5.60
2023-04-14T03:10:10.531Z,4.40
2023-04-14T03:12:38.147Z,5.17
2023-04-14T03:15:07.317Z,5.20
2023-04-14T03:17:36.148Z,5.30
2023-04-14T03:20:03.649Z,7.30
2023-04-14T03:22:31.534Z,7.87
2023-04-14T03:24:58.928Z,6.30
2023-04-14T03:27:27.942Z,6.00
2023-04-14T03:29:58.227Z,5.87
2023-04-14T03:32:29.152Z,6.17
2023-04-14T03:34:58.894Z,6.53
2023-04-14T03:37:27.892Z,8.00
2023-04-14T03:40:00.364Z,5.43
2023-04-14T03:42:29.320Z,10.17
2023-04-14T03:44:58.456Z,6.70
2023-04-14T03:47:26.917Z,7.00
2023-04-14T03:49:57.587Z,8.63
2023-04-14T03:52:26.727Z,8.07
2023-04-14T03:54:58.887Z,8.73
2023-04-14T03:57:29.177Z,5.63
2023-04-14T03:59:57.349Z,5.93
2023-04-14T04:02:26.068Z,7.30
2023-04-14T04:04:55.446Z,6.43
2023-04-14T04:07:23.121Z,6.53
2023-04-14T04:09:51.715Z,6.17
2023-04-14T04:12:20.397Z,7.77
2023-04-14T04:14:47.200Z,6.60
2023-04-14T04:17:16.901Z,7.03
2023-04-14T04:19:45.923Z,7.20
2023-04-14T04:22:17.296Z,5.73
2023-04-14T04:24:45.492Z,4.73
2023-04-14T04:27:24.251Z,6.10
2023-04-14T04:29:53.898Z,9.10
2023-04-14T04:32:20.980Z,6.40
2023-04-14T04:34:50.359Z,6.20
2023-04-14T04:37:19.132Z,5.83
2023-04-14T04:39:45.762Z,4.97
2023-04-14T04:42:12.480Z,5.33
2023-04-14T04:44:39.067Z,5.77
2023-04-14T04:47:06.372Z,5.47
2023-04-14T04:49:32.981Z,5.27
2023-04-14T04:51:59.794Z,6.63
2023-04-14T04:54:27.105Z,5.27
2023-04-14T04:56:53.983Z,6.43
2023-04-14T04:59:20.587Z,6.30
2023-04-14T05:01:47.289Z,6.83
2023-04-14T05:04:13.991Z,5.80
2023-04-14T05:06:40.782Z,6.13
2023-04-14T05:09:07.421Z,5.43
2023-04-14T05:11:34.818Z,6.00
2023-04-14T05:14:02.217Z,5.33
2023-04-14T05:16:29.840Z,7.13
2023-04-14T05:18:56.433Z,7.20
2023-04-14T05:21:23.307Z,5.70
2023-04-14T05:23:50.335Z,8.17
2023-04-14T05:28:46.546Z,5.87
2023-04-14T05:31:13.218Z,7.13
2023-04-14T05:33:40.136Z,5.27
2023-04-14T05:36:07.794Z,7.33
2023-04-14T05:38:39.912Z,8.23
2023-04-14T05:41:07.469Z,5.77
2023-04-14T05:43:34.340Z,7.27
2023-04-14T05:46:01.560Z,6.33
2023-04-14T05:48:30.524Z,5.87
2023-04-14T05:50:57.972Z,4.83
2023-04-14T05:53:24.881Z,8.57
2023-04-14T05:55:52.310Z,6.43
2023-04-14T05:58:19.596Z,5.07
2023-04-14T06:00:46.215Z,5.97
2023-04-14T06:03:12.978Z,6.50
2023-04-14T06:05:39.780Z,8.47
2023-04-14T06:08:06.338Z,6.33
2023-04-14T06:10:32.889Z,6.77
2023-04-14T06:12:59.488Z,9.37
2023-04-14T06:15:29.486Z,6.00
2023-04-14T06:17:56.194Z,6.50
2023-04-14T06:20:22.975Z,8.30
2023-04-14T06:22:50.468Z,7.93
2023-04-14T06:25:17.116Z,7.57
2023-04-14T06:27:43.749Z,5.97
2023-04-14T06:30:10.668Z,10.60
2023-04-14T06:32:37.325Z,7.67
2023-04-14T06:35:04.876Z,7.50
2023-04-14T06:37:32.168Z,6.93
2023-04-14T06:39:58.791Z,7.20
2023-04-14T06:42:25.673Z,6.93
2023-04-14T06:44:52.353Z,7.33
2023-04-14T06:47:21.110Z,8.27
2023-04-14T06:49:47.962Z,9.17
2023-04-14T06:52:14.608Z,7.73
2023-04-14T06:54:42.122Z,7.17
2023-04-14T06:57:08.841Z,8.10
2023-04-14T06:59:35.466Z,7.77
2023-04-14T07:02:02.357Z,8.97
2023-04-14T07:04:29.174Z,6.13
2023-04-14T07:07:00.738Z,7.03
2023-04-14T07:09:28.653Z,8.03
2023-04-14T07:11:57.269Z,8.27
2023-04-14T07:14:24.431Z,11.47
2023-04-14T07:16:51.951Z,10.60
2023-04-14T07:19:19.095Z,6.97
2023-04-14T07:21:46.416Z,8.73
2023-04-14T07:24:15.199Z,8.23
2023-04-14T07:26:44.083Z,8.83
2023-04-14T07:29:10.726Z,10.97
2023-04-14T07:31:38.102Z,10.53
2023-04-14T07:34:05.065Z,10.53
2023-04-14T07:36:32.584Z,9.60
2023-04-14T07:38:59.435Z,11.60
2023-04-14T07:41:26.847Z,8.70
2023-04-14T07:43:55.683Z,9.00
2023-04-14T07:46:22.625Z,9.97
2023-04-14T07:48:49.371Z,11.00
2023-04-14T07:51:22.017Z,8.90
2023-04-14T07:53:48.771Z,8.33
2023-04-14T07:56:15.496Z,10.50
2023-04-14T07:58:42.176Z,13.43
2023-04-14T08:01:08.864Z,9.80
2023-04-14T08:03:37.430Z,9.37
2023-04-14T08:06:06.005Z,8.23
2023-04-14T08:08:33.707Z,6.90
2023-04-14T08:11:00.536Z,6.73
2023-04-14T08:13:27.112Z,5.00
2023-04-14T08:15:53.684Z,6.93
2023-04-14T08:18:20.913Z,8.60
2023-04-14T08:20:47.589Z,5.77
2023-04-14T08:23:14.411Z,6.47
2023-04-14T08:25:42.183Z,7.90
2023-04-14T08:28:08.807Z,7.93
2023-04-14T08:30:35.729Z,6.90
2023-04-14T08:33:02.779Z,6.10
2023-04-14T08:35:37.529Z,6.13
2023-04-14T08:38:07.935Z,6.67
2023-04-14T08:40:43.382Z,5.73
2023-04-14T08:43:12.980Z,4.00
2023-04-14T08:45:41.890Z,5.20
2023-04-14T08:48:09.407Z,4.57
2023-04-14T08:51:09.388Z,5.27
2023-04-14T08:53:43.669Z,6.83
2023-04-14T08:56:16.210Z,5.37
2023-04-14T08:58:43.009Z,5.27
2023-04-14T09:01:10.337Z,6.37
2023-04-14T09:03:41.043Z,4.93
2023-04-14T09:06:07.800Z,4.30
2023-04-14T09:08:35.408Z,6.93
2023-04-14T09:11:03.453Z,5.50
2023-04-14T09:13:31.226Z,5.23
2023-04-14T09:15:58.435Z,5.60
2023-04-14T09:18:25.929Z,4.80
2023-04-14T09:21:52.034Z,5.73
2023-04-14T09:23:41.969Z,6.10
2023-04-14T09:26:10.318Z,7.57
2023-04-14T09:28:37.412Z,6.00
2023-04-14T09:31:04.819Z,6.63
2023-04-14T09:33:31.691Z,6.37
2023-04-14T09:35:58.298Z,8.27
2023-04-14T09:38:36.410Z,6.30
2023-04-14T09:41:05.135Z,6.53
2023-04-14T09:43:31.788Z,10.50
2023-04-14T09:46:04.847Z,11.00
2023-04-14T09:48:31.623Z,9.53
2023-04-14T09:51:07.050Z,8.90
2023-04-14T09:53:35.650Z,9.17
2023-04-14T09:56:04.935Z,9.33
2023-04-14T09:58:34.044Z,7.63
2023-04-14T10:01:03.038Z,8.77
2023-04-14T10:03:38.262Z,8.23
2023-04-14T10:06:10.654Z,8.13
2023-04-14T10:08:38.929Z,7.23
2023-04-14T10:11:18.017Z,9.33
2023-04-14T10:13:49.947Z,9.43
2023-04-14T10:16:17.594Z,8.30
2023-04-14T10:18:44.514Z,6.17
2023-04-14T10:21:11.569Z,7.30
2023-04-14T10:23:39.407Z,7.30
2023-04-14T10:26:11.340Z,6.53
2023-04-14T10:28:43.812Z,8.67
2023-04-14T10:31:20.062Z,6.87
2023-04-14T10:33:46.758Z,6.93
2023-04-14T10:36:22.714Z,9.73
2023-04-14T10:38:49.329Z,6.97
2023-04-14T10:41:15.960Z,7.40
2023-04-14T10:43:42.501Z,7.27
2023-04-14T10:46:10.049Z,7.30
2023-04-14T10:48:41.331Z,7.03
2023-04-14T10:51:09.809Z,6.93
2023-04-14T10:53:50.141Z,6.37
2023-04-14T10:56:21.548Z,7.57
2023-04-14T10:58:59.029Z,7.03
2023-04-14T11:01:32.185Z,8.87
2023-04-14T11:04:17.850Z,9.07
2023-04-14T11:06:54.843Z,6.37
2023-04-14T11:09:26.368Z,6.43
2023-04-14T11:11:55.328Z,7.37
2023-04-14T11:14:31.443Z,8.50
2023-04-14T11:17:04.287Z,7.50
2023-04-14T11:19:32.284Z,7.90
2023-04-14T11:21:59.053Z,7.47
2023-04-14T11:24:26.551Z,7.90
2023-04-14T11:26:57.062Z,9.27
2023-04-14T11:29:23.652Z,7.67
2023-04-14T11:32:05.326Z,7.87
2023-04-14T11:34:33.397Z,11.00
2023-04-14T11:37:03.689Z,9.83
2023-04-14T11:39:30.499Z,7.83
2023-04-14T11:42:00.180Z,6.60
2023-04-14T11:44:27.220Z,7.40
2023-04-14T11:46:54.040Z,6.30
2023-04-14T11:49:33.358Z,7.70
2023-04-14T11:52:06.193Z,7.43
2023-04-14T11:54:37.219Z,5.87
2023-04-14T11:57:18.185Z,7.23
2023-04-14T11:59:45.970Z,7.03
2023-04-14T12:02:20.662Z,6.97
2023-04-14T12:04:50.570Z,6.60
2023-04-14T12:07:19.005Z,7.67
2023-04-14T12:09:48.749Z,7.40
2023-04-14T12:12:17.389Z,7.67
2023-04-14T12:14:45.978Z,6.80
2023-04-14T12:17:13.890Z,6.30
2023-04-14T12:19:40.758Z,6.70
2023-04-14T12:22:09.500Z,8.00
2023-04-14T12:24:40.750Z,5.33
2023-04-14T12:27:09.415Z,7.73
2023-04-14T12:29:39.955Z,7.93
2023-04-14T12:32:13.155Z,5.83
2023-04-14T12:34:39.999Z,6.70
2023-04-14T12:37:11.446Z,7.20
2023-04-14T12:40:00.041Z,6.70
2023-04-14T12:42:28.178Z,7.13
2023-04-14T12:44:58.947Z,7.07
2023-04-14T12:47:34.061Z,6.67
2023-04-14T12:50:03.085Z,5.33
2023-04-14T12:52:40.277Z,8.20
2023-04-14T12:55:19.065Z,5.30
2023-04-14T12:57:45.681Z,8.00
2023-04-14T13:00:13.738Z,6.33
2023-04-14T13:02:44.053Z,6.53
2023-04-14T13:05:12.110Z,7.50
2023-04-14T13:07:38.736Z,7.83
2023-04-14T13:10:05.868Z,6.30
2023-04-14T13:12:32.431Z,6.63
2023-04-14T13:14:59.169Z,8.67
2023-04-14T13:17:26.215Z,8.00
2023-04-14T13:19:53.034Z,8.50
2023-04-14T13:22:19.627Z,7.33
2023-04-14T13:24:46.218Z,8.13
2023-04-14T13:27:12.786Z,7.70
2023-04-14T13:29:41.180Z,6.97
2023-04-14T13:32:12.392Z,9.70
2023-04-14T13:34:39.717Z,7.47
2023-04-14T13:37:06.405Z,5.97
2023-04-14T13:39:33.103Z,7.47
2023-04-14T13:41:59.894Z,9.03
2023-04-14T13:44:26.440Z,8.27
2023-04-14T13:46:53.397Z,7.40
2023-04-14T13:49:20.372Z,7.10
2023-04-14T13:51:47.586Z,8.93
2023-04-14T13:54:14.214Z,7.37
2023-04-14T13:56:40.839Z,7.67
2023-04-14T13:59:08.144Z,7.83
2023-04-14T14:01:34.760Z,8.50
2023-04-14T14:04:01.623Z,8.97
2023-04-14T14:06:28.877Z,7.13
2023-04-14T14:09:05.637Z,6.47
2023-04-14T14:11:34.657Z,6.27
2023-04-14T14:14:01.476Z,5.53
2023-04-14T14:18:57.881Z,5.10
2023-04-14T14:21:24.431Z,5.40
2023-04-14T14:23:51.091Z,5.03
2023-04-14T14:26:17.685Z,5.30
2023-04-14T14:28:45.408Z,5.10
2023-04-14T14:31:11.984Z,4.40
2023-04-14T14:33:38.608Z,5.67
2023-04-14T14:36:05.728Z,5.40
2023-04-14T14:38:32.550Z,4.67
2023-04-14T14:40:59.441Z,4.23
2023-04-14T14:43:26.204Z,5.47
2023-04-14T14:45:52.782Z,4.77
2023-04-14T14:48:20.930Z,5.23
2023-04-14T14:50:47.505Z,5.00
2023-04-14T14:53:14.076Z,4.73
2023-04-14T14:55:40.837Z,4.30
2023-04-14T14:58:08.386Z,4.90
2023-04-14T15:00:35.671Z,4.80
2023-04-14T15:03:02.432Z,5.43
2023-04-14T15:05:29.282Z,8.93
2023-04-14T15:07:55.947Z,4.20
2023-04-14T15:10:22.643Z,4.07
2023-04-14T15:12:49.217Z,5.53
2023-04-14T15:15:18.928Z,4.00
2023-04-14T15:17:46.143Z,4.27
2023-04-14T15:20:13.280Z,5.80
2023-04-14T15:22:40.275Z,4.67
2023-04-14T15:25:09.080Z,5.33
2023-04-14T15:27:35.971Z,4.93
2023-04-14T15:30:03.377Z,5.70
2023-04-14T15:32:30.100Z,6.47
2023-04-14T15:34:56.880Z,5.90
2023-04-14T15:37:23.495Z,5.47
2023-04-14T15:39:50.691Z,5.50
2023-04-14T15:42:17.294Z,4.97
2023-04-14T15:44:43.848Z,5.10
2023-04-14T15:47:11.456Z,4.63
2023-04-14T15:49:38.047Z,5.50
2023-04-14T15:52:05.846Z,4.77
2023-04-14T15:54:33.636Z,4.83
2023-04-14T15:57:00.458Z,4.70
2023-04-14T15:59:28.696Z,5.83
2023-04-14T16:01:56.160Z,5.03
2023-04-14T16:04:23.821Z,5.87
2023-04-14T16:06:51.202Z,4.37
2023-04-14T16:09:17.753Z,4.67
2023-04-14T16:11:44.620Z,5.47
2023-04-14T16:14:11.267Z,5.17
2023-04-14T16:16:38.420Z,4.17
2023-04-14T16:19:05.268Z,5.40
2023-04-14T16:21:31.918Z,4.23
2023-04-14T16:23:58.636Z,4.43
2023-04-14T16:26:25.656Z,13.50
2023-04-14T16:28:52.546Z,5.60
2023-04-14T16:31:19.225Z,4.33
2023-04-14T16:33:46.020Z,4.03
2023-04-14T16:36:12.771Z,5.63
2023-04-14T16:38:39.427Z,5.50
2023-04-14T16:41:06.055Z,4.93
2023-04-14T16:43:32.722Z,5.43
2023-04-14T16:46:03.743Z,6.13
2023-04-14T16:48:31.124Z,4.77
2023-04-14T16:51:00.769Z,5.17
2023-04-14T16:53:27.554Z,5.10
2023-04-14T16:55:54.178Z,5.33
2023-04-14T16:58:20.762Z,5.50
2023-04-14T17:00:47.413Z,4.47
2023-04-14T17:03:14.109Z,3.70
2023-04-14T17:05:40.812Z,4.93
2023-04-14T17:08:07.399Z,3.97
2023-04-14T17:10:34.266Z,4.13
2023-04-14T17:13:01.940Z,5.17
2023-04-14T17:15:28.661Z,5.10
2023-04-14T17:17:55.363Z,4.47
2023-04-14T17:20:22.357Z,4.63
2023-04-14T17:22:50.198Z,7.60
2023-04-14T17:25:19.975Z,4.33
2023-04-14T17:27:47.670Z,5.33
2023-04-14T17:30:14.686Z,4.17
2023-04-14T17:32:41.884Z,5.30
2023-04-14T17:35:09.403Z,5.73
2023-04-14T17:37:36.497Z,4.57
2023-04-14T17:40:04.870Z,5.63
2023-04-14T17:42:32.123Z,5.10
2023-04-14T17:44:58.692Z,4.10
2023-04-14T17:47:25.380Z,5.17
2023-04-14T17:49:52.708Z,5.67
2023-04-14T17:52:20.709Z,5.10
2023-04-14T17:54:49.477Z,5.57
2023-04-14T17:57:17.355Z,5.07
2023-04-14T17:59:44.896Z,5.17
2023-04-14T18:02:14.150Z,5.00
2023-04-14T18:04:40.954Z,4.80
2023-04-14T18:07:07.857Z,5.10
2023-04-14T18:09:34.870Z,5.33
2023-04-14T18:12:02.322Z,5.47
2023-04-14T18:14:29.079Z,5.13
2023-04-14T18:16:55.956Z,6.33
2023-04-14T18:19:23.015Z,6.47
2023-04-14T18:21:49.668Z,5.73
2023-04-14T18:26:45.921Z,6.00
2023-04-14T18:29:12.639Z,6.97
2023-04-14T18:31:39.211Z,6.33
2023-04-14T18:34:10.320Z,7.93
2023-04-14T18:36:38.046Z,6.97
2023-04-14T18:39:05.131Z,6.80
2023-04-14T18:41:31.993Z,7.33
2023-04-14T18:43:58.768Z,7.07
2023-04-14T18:46:25.576Z,7.17
2023-04-14T18:48:52.186Z,6.80
2023-04-14T18:51:18.961Z,7.27
2023-04-14T18:53:46.450Z,8.03
2023-04-14T18:56:13.578Z,9.20
2023-04-14T18:58:40.312Z,8.80
2023-04-14T19:01:08.299Z,7.10
2023-04-14T19:03:37.866Z,7.73
2023-04-14T19:06:05.196Z,7.53
2023-04-14T19:08:31.837Z,8.87
2023-04-14T19:10:59.248Z,6.83
2023-04-14T19:13:26.097Z,6.80
2023-04-14T19:15:52.856Z,7.10
2023-04-14T19:18:21.452Z,7.20
2023-04-14T19:20:49.607Z,7.97
2023-04-14T19:23:16.288Z,9.43
2023-04-14T19:25:43.046Z,8.50
2023-04-14T19:28:16.418Z,7.70
2023-04-14T19:30:44.892Z,8.63
2023-04-14T19:33:13.092Z,8.07
2023-04-14T19:35:40.138Z,7.97
2023-04-14T19:38:07.932Z,9.33
2023-04-14T19:40:34.775Z,8.30
2023-04-14T19:43:01.826Z,9.63
2023-04-14T19:45:28.835Z,8.80
2023-04-14T19:47:55.562Z,9.87
2023-04-14T19:50:24.883Z,8.70
2023-04-14T19:52:52.316Z,9.37
2023-04-14T19:55:19.182Z,8.67
2023-04-14T19:57:46.871Z,10.23
2023-04-14T20:00:14.010Z,8.90
2023-04-14T20:02:42.090Z,8.60
2023-04-14T20:05:09.029Z,7.70
2023-04-14T20:07:35.597Z,9.37
2023-04-14T20:10:02.539Z,8.77
2023-04-14T20:12:29.302Z,9.40
2023-04-14T20:14:58.796Z,9.07
2023-04-14T20:17:27.196Z,9.17
2023-04-14T20:19:53.956Z,8.90
2023-04-14T20:22:20.994Z,9.20
2023-04-14T20:24:47.621Z,9.90
2023-04-14T20:27:14.604Z,9.70
2023-04-14T20:29:41.255Z,9.20
2023-04-14T20:32:07.827Z,10.13
2023-04-14T20:34:35.394Z,10.20
2023-04-14T20:37:02.636Z,10.80
2023-04-14T20:39:29.499Z,11.50
2023-04-14T20:41:59.400Z,11.87
2023-04-14T20:44:28.628Z,12.43
2023-04-14T20:46:55.681Z,12.57
2023-04-14T20:49:22.637Z,12.73
2023-04-14T20:51:50.035Z,13.47
2023-04-14T20:54:17.118Z,15.10
2023-04-14T20:56:47.235Z,11.93
2023-04-14T20:59:13.865Z,12.90
2023-04-14T21:01:42.713Z,14.80
2023-04-14T21:04:10.175Z,14.30
2023-04-14T21:06:37.628Z,13.63
2023-04-14T21:09:05.551Z,13.10
2023-04-14T21:11:32.501Z,14.17
2023-04-14T21:15:40.048Z,14.67
2023-04-14T21:16:45.944Z,12.10
2023-04-14T21:19:13.450Z,12.73
2023-04-14T21:21:40.105Z,13.77
2023-04-14T21:24:06.931Z,15.40
2023-04-14T21:26:33.661Z,14.23
2023-04-14T21:29:03.625Z,14.33
2023-04-14T21:31:30.481Z,13.87
2023-04-14T21:33:57.109Z,15.47
2023-04-14T21:36:24.374Z,13.93
2023-04-14T21:38:51.634Z,14.70
2023-04-14T21:41:18.245Z,14.47
2023-04-14T21:43:44.973Z,14.93
2023-04-14T21:46:11.570Z,16.70
2023-04-14T21:48:40.525Z,15.93
2023-04-14T21:51:07.611Z,18.43
2023-04-14T21:53:34.851Z,16.77
2023-04-14T21:56:10.037Z,19.30
2023-04-14T21:58:39.150Z,16.17
2023-04-14T22:01:07.004Z,16.33
2023-04-14T22:03:33.781Z,16.23
2023-04-14T22:06:01.164Z,16.07
2023-04-14T22:08:27.799Z,17.07
2023-04-14T22:10:54.899Z,16.70
2023-04-14T22:13:21.566Z,17.17
2023-04-14T22:15:49.139Z,17.33
2023-04-14T22:18:17.073Z,15.33
2023-04-14T22:20:44.975Z,17.57
2023-04-14T22:23:12.376Z,17.20
2023-04-14T22:25:39.098Z,17.27
2023-04-14T22:28:05.940Z,18.10
2023-04-14T22:30:32.598Z,19.57
2023-04-14T22:32:59.203Z,18.50
2023-04-14T22:35:26.295Z,18.17
2023-04-14T22:37:53.397Z,19.23
2023-04-14T22:40:19.983Z,20.30
2023-04-14T22:42:48.142Z,21.27
2023-04-14T22:45:17.160Z,19.80
2023-04-14T22:47:43.755Z,19.90
2023-04-14T22:50:10.626Z,19.83
2023-04-14T22:52:37.541Z,19.07
2023-04-14T22:55:04.437Z,20.00
2023-04-14T22:57:31.026Z,21.50
2023-04-14T22:59:57.693Z,21.87
2023-04-14T23:02:24.380Z,19.80
2023-04-14T23:04:53.736Z,19.40
2023-04-14T23:07:21.225Z,20.43
2023-04-14T23:09:47.825Z,22.30
2023-04-14T23:12:14.412Z,21.60
2023-04-14T23:14:41.131Z,21.93
2023-04-14T23:17:07.738Z,21.73
2023-04-14T23:19:35.714Z,23.30
2023-04-14T23:22:02.657Z,22.73
2023-04-14T23:24:29.418Z,23.27
2023-04-14T23:26:56.047Z,21.60
2023-04-14T23:29:22.634Z,24.77
2023-04-14T23:31:49.326Z,22.63
2023-04-14T23:34:16.121Z,23.97
2023-04-14T23:36:46.192Z,23.80
2023-04-14T23:39:13.157Z,23.17
2023-04-14T23:41:39.710Z,27.67
2023-04-14T23:44:07.589Z,25.30
2023-04-14T23:46:34.425Z,26.57
2023-04-14T23:49:02.832Z,24.47
2023-04-14T23:51:37.569Z,28.37
2023-04-14T23:54:05.456Z,26.07
2023-04-14T23:56:32.314Z,27.77
2023-04-14T23:58:59.558Z,27.00
